sensor_id;sensor_type;location;lat;lon;timestamp;P1;durP1;ratioP1;P2;durP2;ratioP2
54384;SDS011;40284;52.878;5.998;2022-11-14T00:02:04;45.53;;;27.58;;
54384;SDS011;40284;52.878;5.998;2022-11-14T00:04:30;46.50;;;25.98;;
54384;SDS011;40284;52.878;5.998;2022-11-14T00:06:56;48.97;;;28.23;;
54384;SDS011;40284;52.878;5.998;2022-11-14T00:09:25;45.30;;;27.00;;
54384;SDS011;40284;52.878;5.998;2022-11-14T00:11:52;50.80;;;26.85;;
54384;SDS011;40284;52.878;5.998;2022-11-14T00:14:18;46.42;;;27.90;;
54384;SDS011;40284;52.878;5.998;2022-11-14T00:16:44;44.35;;;27.42;;
54384;SDS011;40284;52.878;5.998;2022-11-14T00:19:10;51.60;;;29.77;;
54384;SDS011;40284;52.878;5.998;2022-11-14T00:21:36;53.03;;;29.92;;
54384;SDS011;40284;52.878;5.998;2022-11-14T00:24:02;49.80;;;28.42;;
54384;SDS011;40284;52.878;5.998;2022-11-14T00:26:29;48.90;;;29.80;;
54384;SDS011;40284;52.878;5.998;2022-11-14T00:28:55;45.03;;;28.10;;
54384;SDS011;40284;52.878;5.998;2022-11-14T00:31:21;48.38;;;28.40;;
54384;SDS011;40284;52.878;5.998;2022-11-14T00:33:47;51.85;;;27.75;;
54384;SDS011;40284;52.878;5.998;2022-11-14T00:36:13;51.33;;;28.95;;
54384;SDS011;40284;52.878;5.998;2022-11-14T00:38:39;46.65;;;27.88;;
54384;SDS011;40284;52.878;5.998;2022-11-14T00:41:05;56.08;;;31.30;;
54384;SDS011;40284;52.878;5.998;2022-11-14T00:43:31;55.42;;;28.77;;
54384;SDS011;40284;52.878;5.998;2022-11-14T00:45:58;54.97;;;28.45;;
54384;SDS011;40284;52.878;5.998;2022-11-14T00:48:24;53.80;;;29.98;;
54384;SDS011;40284;52.878;5.998;2022-11-14T00:50:50;52.35;;;28.80;;
54384;SDS011;40284;52.878;5.998;2022-11-14T00:53:16;52.17;;;29.50;;
54384;SDS011;40284;52.878;5.998;2022-11-14T00:55:42;55.70;;;30.65;;
54384;SDS011;40284;52.878;5.998;2022-11-14T00:58:08;57.85;;;30.38;;
54384;SDS011;40284;52.878;5.998;2022-11-14T01:00:34;52.85;;;29.77;;
54384;SDS011;40284;52.878;5.998;2022-11-14T01:03:00;51.80;;;29.40;;
54384;SDS011;40284;52.878;5.998;2022-11-14T01:05:26;53.90;;;30.73;;
54384;SDS011;40284;52.878;5.998;2022-11-14T01:07:53;54.03;;;31.17;;
54384;SDS011;40284;52.878;5.998;2022-11-14T01:10:19;53.70;;;31.27;;
54384;SDS011;40284;52.878;5.998;2022-11-14T01:12:45;57.53;;;31.48;;
54384;SDS011;40284;52.878;5.998;2022-11-14T01:15:11;54.95;;;30.90;;
54384;SDS011;40284;52.878;5.998;2022-11-14T01:17:38;56.00;;;32.08;;
54384;SDS011;40284;52.878;5.998;2022-11-14T01:20:04;50.85;;;30.13;;
54384;SDS011;40284;52.878;5.998;2022-11-14T01:22:31;50.63;;;30.60;;
54384;SDS011;40284;52.878;5.998;2022-11-14T01:24:57;49.88;;;30.48;;
54384;SDS011;40284;52.878;5.998;2022-11-14T01:27:23;51.13;;;30.88;;
54384;SDS011;40284;52.878;5.998;2022-11-14T01:29:50;53.92;;;29.73;;
54384;SDS011;40284;52.878;5.998;2022-11-14T01:32:16;46.80;;;29.17;;
54384;SDS011;40284;52.878;5.998;2022-11-14T01:34:42;53.90;;;30.45;;
54384;SDS011;40284;52.878;5.998;2022-11-14T01:37:08;50.28;;;31.60;;
54384;SDS011;40284;52.878;5.998;2022-11-14T01:39:34;55.33;;;32.30;;
54384;SDS011;40284;52.878;5.998;2022-11-14T01:42:00;52.63;;;31.33;;
54384;SDS011;40284;52.878;5.998;2022-11-14T01:47:11;50.40;;;32.17;;
54384;SDS011;40284;52.878;5.998;2022-11-14T01:49:38;50.80;;;29.40;;
54384;SDS011;40284;52.878;5.998;2022-11-14T01:52:07;50.40;;;31.15;;
54384;SDS011;40284;52.878;5.998;2022-11-14T01:54:39;53.55;;;33.08;;
54384;SDS011;40284;52.878;5.998;2022-11-14T01:57:06;52.35;;;30.77;;
54384;SDS011;40284;52.878;5.998;2022-11-14T01:59:37;52.78;;;31.13;;
54384;SDS011;40284;52.878;5.998;2022-11-14T02:02:09;50.15;;;30.92;;
54384;SDS011;40284;52.878;5.998;2022-11-14T02:04:38;53.90;;;32.72;;
54384;SDS011;40284;52.878;5.998;2022-11-14T02:07:05;49.60;;;31.83;;
54384;SDS011;40284;52.878;5.998;2022-11-14T02:09:36;51.90;;;31.75;;
54384;SDS011;40284;52.878;5.998;2022-11-14T02:12:04;50.88;;;32.05;;
54384;SDS011;40284;52.878;5.998;2022-11-14T02:14:30;51.72;;;32.60;;
54384;SDS011;40284;52.878;5.998;2022-11-14T02:16:57;53.22;;;32.15;;
54384;SDS011;40284;52.878;5.998;2022-11-14T02:19:24;52.63;;;33.55;;
54384;SDS011;40284;52.878;5.998;2022-11-14T02:21:50;50.42;;;32.78;;
54384;SDS011;40284;52.878;5.998;2022-11-14T02:24:16;55.28;;;34.15;;
54384;SDS011;40284;52.878;5.998;2022-11-14T02:26:42;52.10;;;32.40;;
54384;SDS011;40284;52.878;5.998;2022-11-14T02:29:09;54.70;;;33.65;;
54384;SDS011;40284;52.878;5.998;2022-11-14T02:31:35;56.88;;;35.53;;
54384;SDS011;40284;52.878;5.998;2022-11-14T02:34:01;60.60;;;34.47;;
54384;SDS011;40284;52.878;5.998;2022-11-14T02:36:27;55.47;;;33.85;;
54384;SDS011;40284;52.878;5.998;2022-11-14T02:38:53;55.05;;;33.65;;
54384;SDS011;40284;52.878;5.998;2022-11-14T02:41:19;53.58;;;34.40;;
54384;SDS011;40284;52.878;5.998;2022-11-14T02:43:45;57.72;;;34.63;;
54384;SDS011;40284;52.878;5.998;2022-11-14T02:46:12;55.30;;;35.03;;
54384;SDS011;40284;52.878;5.998;2022-11-14T02:48:38;56.50;;;36.08;;
54384;SDS011;40284;52.878;5.998;2022-11-14T02:51:04;54.25;;;33.15;;
54384;SDS011;40284;52.878;5.998;2022-11-14T02:53:30;56.40;;;34.88;;
54384;SDS011;40284;52.878;5.998;2022-11-14T02:55:56;53.22;;;34.85;;
54384;SDS011;40284;52.878;5.998;2022-11-14T02:58:22;56.20;;;35.25;;
54384;SDS011;40284;52.878;5.998;2022-11-14T03:00:48;59.70;;;36.88;;
54384;SDS011;40284;52.878;5.998;2022-11-14T03:03:14;60.28;;;35.92;;
54384;SDS011;40284;52.878;5.998;2022-11-14T03:05:40;56.13;;;34.97;;
54384;SDS011;40284;52.878;5.998;2022-11-14T03:08:06;56.70;;;35.17;;
54384;SDS011;40284;52.878;5.998;2022-11-14T03:10:32;56.50;;;35.47;;
54384;SDS011;40284;52.878;5.998;2022-11-14T03:12:58;59.55;;;36.72;;
54384;SDS011;40284;52.878;5.998;2022-11-14T03:15:24;58.15;;;37.88;;
54384;SDS011;40284;52.878;5.998;2022-11-14T03:17:50;61.15;;;36.60;;
54384;SDS011;40284;52.878;5.998;2022-11-14T03:20:16;57.38;;;36.90;;
54384;SDS011;40284;52.878;5.998;2022-11-14T03:22:42;61.58;;;38.25;;
54384;SDS011;40284;52.878;5.998;2022-11-14T03:25:08;62.30;;;37.13;;
54384;SDS011;40284;52.878;5.998;2022-11-14T03:27:34;61.72;;;38.65;;
54384;SDS011;40284;52.878;5.998;2022-11-14T03:30:01;65.10;;;39.15;;
54384;SDS011;40284;52.878;5.998;2022-11-14T03:32:27;67.53;;;39.58;;
54384;SDS011;40284;52.878;5.998;2022-11-14T03:34:53;64.90;;;39.08;;
54384;SDS011;40284;52.878;5.998;2022-11-14T03:37:19;70.68;;;41.33;;
54384;SDS011;40284;52.878;5.998;2022-11-14T03:39:45;70.68;;;41.08;;
54384;SDS011;40284;52.878;5.998;2022-11-14T03:42:11;69.03;;;40.50;;
54384;SDS011;40284;52.878;5.998;2022-11-14T03:44:37;71.78;;;41.88;;
54384;SDS011;40284;52.878;5.998;2022-11-14T03:47:03;67.82;;;41.30;;
54384;SDS011;40284;52.878;5.998;2022-11-14T03:49:29;69.18;;;40.22;;
54384;SDS011;40284;52.878;5.998;2022-11-14T03:51:55;67.03;;;40.17;;
54384;SDS011;40284;52.878;5.998;2022-11-14T03:54:21;68.38;;;41.28;;
54384;SDS011;40284;52.878;5.998;2022-11-14T03:56:47;69.72;;;40.17;;
54384;SDS011;40284;52.878;5.998;2022-11-14T03:59:13;69.05;;;40.85;;
54384;SDS011;40284;52.878;5.998;2022-11-14T04:01:39;75.18;;;42.17;;
54384;SDS011;40284;52.878;5.998;2022-11-14T04:04:05;74.03;;;41.65;;
54384;SDS011;40284;52.878;5.998;2022-11-14T04:06:31;71.30;;;42.08;;
54384;SDS011;40284;52.878;5.998;2022-11-14T04:08:57;65.78;;;41.22;;
54384;SDS011;40284;52.878;5.998;2022-11-14T04:11:25;66.68;;;40.60;;
54384;SDS011;40284;52.878;5.998;2022-11-14T04:13:51;73.05;;;43.03;;
54384;SDS011;40284;52.878;5.998;2022-11-14T04:16:17;70.50;;;40.58;;
54384;SDS011;40284;52.878;5.998;2022-11-14T04:18:43;69.93;;;41.10;;
54384;SDS011;40284;52.878;5.998;2022-11-14T04:21:09;69.82;;;41.35;;
54384;SDS011;40284;52.878;5.998;2022-11-14T04:23:35;71.57;;;41.55;;
54384;SDS011;40284;52.878;5.998;2022-11-14T04:26:01;74.20;;;44.88;;
54384;SDS011;40284;52.878;5.998;2022-11-14T04:28:27;73.93;;;42.10;;
54384;SDS011;40284;52.878;5.998;2022-11-14T04:30:53;68.15;;;40.08;;
54384;SDS011;40284;52.878;5.998;2022-11-14T04:33:19;77.28;;;43.75;;
54384;SDS011;40284;52.878;5.998;2022-11-14T04:35:46;76.40;;;42.15;;
54384;SDS011;40284;52.878;5.998;2022-11-14T04:38:12;72.72;;;42.97;;
54384;SDS011;40284;52.878;5.998;2022-11-14T04:40:38;74.80;;;44.20;;
54384;SDS011;40284;52.878;5.998;2022-11-14T04:43:05;69.72;;;41.15;;
54384;SDS011;40284;52.878;5.998;2022-11-14T04:45:31;69.93;;;41.58;;
54384;SDS011;40284;52.878;5.998;2022-11-14T04:47:57;74.70;;;42.70;;
54384;SDS011;40284;52.878;5.998;2022-11-14T04:50:23;73.32;;;42.72;;
54384;SDS011;40284;52.878;5.998;2022-11-14T04:52:52;80.20;;;44.97;;
54384;SDS011;40284;52.878;5.998;2022-11-14T04:55:18;79.30;;;45.40;;
54384;SDS011;40284;52.878;5.998;2022-11-14T04:57:44;84.43;;;48.33;;
54384;SDS011;40284;52.878;5.998;2022-11-14T05:00:10;77.90;;;45.67;;
54384;SDS011;40284;52.878;5.998;2022-11-14T05:02:36;72.28;;;40.78;;
54384;SDS011;40284;52.878;5.998;2022-11-14T05:05:02;67.18;;;39.92;;
54384;SDS011;40284;52.878;5.998;2022-11-14T05:07:28;71.05;;;42.00;;
54384;SDS011;40284;52.878;5.998;2022-11-14T05:09:54;70.20;;;41.90;;
54384;SDS011;40284;52.878;5.998;2022-11-14T05:12:20;76.53;;;43.15;;
54384;SDS011;40284;52.878;5.998;2022-11-14T05:14:46;74.45;;;42.83;;
54384;SDS011;40284;52.878;5.998;2022-11-14T05:17:13;71.18;;;41.63;;
54384;SDS011;40284;52.878;5.998;2022-11-14T05:19:39;71.05;;;39.88;;
54384;SDS011;40284;52.878;5.998;2022-11-14T05:22:05;71.13;;;42.28;;
54384;SDS011;40284;52.878;5.998;2022-11-14T05:24:31;70.47;;;41.92;;
54384;SDS011;40284;52.878;5.998;2022-11-14T05:26:57;71.38;;;42.15;;
54384;SDS011;40284;52.878;5.998;2022-11-14T05:29:23;73.47;;;42.97;;
54384;SDS011;40284;52.878;5.998;2022-11-14T05:31:49;72.95;;;42.58;;
54384;SDS011;40284;52.878;5.998;2022-11-14T05:34:15;67.70;;;40.38;;
54384;SDS011;40284;52.878;5.998;2022-11-14T05:36:41;71.55;;;41.00;;
54384;SDS011;40284;52.878;5.998;2022-11-14T05:39:07;70.47;;;42.22;;
54384;SDS011;40284;52.878;5.998;2022-11-14T05:41:33;74.85;;;41.90;;
54384;SDS011;40284;52.878;5.998;2022-11-14T05:43:59;70.85;;;39.67;;
54384;SDS011;40284;52.878;5.998;2022-11-14T05:46:26;76.13;;;42.75;;
54384;SDS011;40284;52.878;5.998;2022-11-14T05:48:52;69.50;;;39.83;;
54384;SDS011;40284;52.878;5.998;2022-11-14T05:51:18;74.43;;;42.85;;
54384;SDS011;40284;52.878;5.998;2022-11-14T05:53:44;74.85;;;42.47;;
54384;SDS011;40284;52.878;5.998;2022-11-14T05:56:10;75.07;;;46.30;;
54384;SDS011;40284;52.878;5.998;2022-11-14T05:58:37;73.93;;;40.97;;
54384;SDS011;40284;52.878;5.998;2022-11-14T06:01:04;70.25;;;42.35;;
54384;SDS011;40284;52.878;5.998;2022-11-14T06:03:34;76.05;;;44.22;;
54384;SDS011;40284;52.878;5.998;2022-11-14T06:06:01;73.85;;;42.75;;
54384;SDS011;40284;52.878;5.998;2022-11-14T06:08:27;69.68;;;40.22;;
54384;SDS011;40284;52.878;5.998;2022-11-14T06:10:54;70.35;;;44.20;;
54384;SDS011;40284;52.878;5.998;2022-11-14T06:13:20;85.47;;;46.65;;
54384;SDS011;40284;52.878;5.998;2022-11-14T06:15:48;79.68;;;46.10;;
54384;SDS011;40284;52.878;5.998;2022-11-14T06:18:15;75.95;;;44.05;;
54384;SDS011;40284;52.878;5.998;2022-11-14T06:20:41;78.20;;;44.50;;
54384;SDS011;40284;52.878;5.998;2022-11-14T06:23:07;71.82;;;41.55;;
54384;SDS011;40284;52.878;5.998;2022-11-14T06:25:33;72.38;;;40.65;;
54384;SDS011;40284;52.878;5.998;2022-11-14T06:27:59;71.07;;;41.53;;
54384;SDS011;40284;52.878;5.998;2022-11-14T06:30:25;71.13;;;42.55;;
54384;SDS011;40284;52.878;5.998;2022-11-14T06:32:55;72.28;;;43.13;;
54384;SDS011;40284;52.878;5.998;2022-11-14T06:35:23;68.82;;;40.42;;
54384;SDS011;40284;52.878;5.998;2022-11-14T06:37:49;76.30;;;42.35;;
54384;SDS011;40284;52.878;5.998;2022-11-14T06:40:15;72.13;;;42.15;;
54384;SDS011;40284;52.878;5.998;2022-11-14T06:42:41;77.57;;;45.95;;
54384;SDS011;40284;52.878;5.998;2022-11-14T06:45:07;70.68;;;42.13;;
54384;SDS011;40284;52.878;5.998;2022-11-14T06:47:33;66.10;;;39.78;;
54384;SDS011;40284;52.878;5.998;2022-11-14T06:49:59;77.80;;;42.38;;
54384;SDS011;40284;52.878;5.998;2022-11-14T06:52:25;72.70;;;41.80;;
54384;SDS011;40284;52.878;5.998;2022-11-14T06:54:51;74.88;;;42.30;;
54384;SDS011;40284;52.878;5.998;2022-11-14T06:57:17;70.30;;;41.10;;
54384;SDS011;40284;52.878;5.998;2022-11-14T06:59:43;72.45;;;42.92;;
54384;SDS011;40284;52.878;5.998;2022-11-14T07:02:13;73.05;;;40.88;;
54384;SDS011;40284;52.878;5.998;2022-11-14T07:04:39;72.50;;;41.55;;
54384;SDS011;40284;52.878;5.998;2022-11-14T07:07:05;71.18;;;43.78;;
54384;SDS011;40284;52.878;5.998;2022-11-14T07:09:31;73.18;;;42.92;;
54384;SDS011;40284;52.878;5.998;2022-11-14T07:11:57;66.30;;;40.97;;
54384;SDS011;40284;52.878;5.998;2022-11-14T07:14:23;76.55;;;46.15;;
54384;SDS011;40284;52.878;5.998;2022-11-14T07:16:49;73.10;;;42.55;;
54384;SDS011;40284;52.878;5.998;2022-11-14T07:19:15;71.15;;;42.70;;
54384;SDS011;40284;52.878;5.998;2022-11-14T07:21:41;68.13;;;42.20;;
54384;SDS011;40284;52.878;5.998;2022-11-14T07:24:07;73.30;;;41.47;;
54384;SDS011;40284;52.878;5.998;2022-11-14T07:26:33;74.68;;;43.60;;
54384;SDS011;40284;52.878;5.998;2022-11-14T07:28:59;69.63;;;41.70;;
54384;SDS011;40284;52.878;5.998;2022-11-14T07:31:25;64.63;;;39.28;;
54384;SDS011;40284;52.878;5.998;2022-11-14T07:33:51;72.18;;;42.85;;
54384;SDS011;40284;52.878;5.998;2022-11-14T07:36:18;70.97;;;41.70;;
54384;SDS011;40284;52.878;5.998;2022-11-14T07:38:44;69.32;;;41.33;;
54384;SDS011;40284;52.878;5.998;2022-11-14T07:41:11;67.85;;;40.25;;
54384;SDS011;40284;52.878;5.998;2022-11-14T07:43:37;69.43;;;42.20;;
54384;SDS011;40284;52.878;5.998;2022-11-14T07:46:04;74.60;;;42.33;;
54384;SDS011;40284;52.878;5.998;2022-11-14T07:48:31;78.30;;;43.78;;
54384;SDS011;40284;52.878;5.998;2022-11-14T07:50:58;70.15;;;41.95;;
54384;SDS011;40284;52.878;5.998;2022-11-14T07:53:24;72.82;;;42.38;;
54384;SDS011;40284;52.878;5.998;2022-11-14T07:55:50;71.75;;;42.75;;
54384;SDS011;40284;52.878;5.998;2022-11-14T07:58:17;72.47;;;42.10;;
54384;SDS011;40284;52.878;5.998;2022-11-14T08:00:43;70.82;;;40.60;;
54384;SDS011;40284;52.878;5.998;2022-11-14T08:03:09;63.75;;;39.42;;
54384;SDS011;40284;52.878;5.998;2022-11-14T08:05:35;64.57;;;39.88;;
54384;SDS011;40284;52.878;5.998;2022-11-14T08:08:02;66.80;;;39.97;;
54384;SDS011;40284;52.878;5.998;2022-11-14T08:10:28;69.97;;;41.65;;
54384;SDS011;40284;52.878;5.998;2022-11-14T08:12:57;71.18;;;41.78;;
54384;SDS011;40284;52.878;5.998;2022-11-14T08:15:24;69.47;;;41.65;;
54384;SDS011;40284;52.878;5.998;2022-11-14T08:17:50;70.07;;;42.00;;
54384;SDS011;40284;52.878;5.998;2022-11-14T08:20:16;68.90;;;40.80;;
54384;SDS011;40284;52.878;5.998;2022-11-14T08:22:42;72.55;;;43.15;;
54384;SDS011;40284;52.878;5.998;2022-11-14T08:25:08;72.95;;;42.65;;
54384;SDS011;40284;52.878;5.998;2022-11-14T08:27:35;70.53;;;39.92;;
54384;SDS011;40284;52.878;5.998;2022-11-14T08:30:01;70.00;;;40.63;;
54384;SDS011;40284;52.878;5.998;2022-11-14T08:32:27;73.53;;;41.80;;
54384;SDS011;40284;52.878;5.998;2022-11-14T08:34:53;70.72;;;40.63;;
54384;SDS011;40284;52.878;5.998;2022-11-14T08:37:19;69.72;;;40.70;;
54384;SDS011;40284;52.878;5.998;2022-11-14T08:39:45;68.20;;;39.33;;
54384;SDS011;40284;52.878;5.998;2022-11-14T08:42:11;64.43;;;37.97;;
54384;SDS011;40284;52.878;5.998;2022-11-14T08:44:37;67.88;;;39.33;;
54384;SDS011;40284;52.878;5.998;2022-11-14T08:47:03;69.55;;;39.78;;
54384;SDS011;40284;52.878;5.998;2022-11-14T08:49:30;68.55;;;39.42;;
54384;SDS011;40284;52.878;5.998;2022-11-14T08:51:56;66.03;;;38.33;;
54384;SDS011;40284;52.878;5.998;2022-11-14T08:54:22;70.20;;;39.15;;
54384;SDS011;40284;52.878;5.998;2022-11-14T08:56:48;65.50;;;37.83;;
54384;SDS011;40284;52.878;5.998;2022-11-14T08:59:14;63.40;;;37.78;;
54384;SDS011;40284;52.878;5.998;2022-11-14T09:01:40;67.05;;;38.70;;
54384;SDS011;40284;52.878;5.998;2022-11-14T09:04:06;66.53;;;37.75;;
54384;SDS011;40284;52.878;5.998;2022-11-14T09:06:33;65.25;;;35.55;;
54384;SDS011;40284;52.878;5.998;2022-11-14T09:08:59;67.10;;;40.20;;
54384;SDS011;40284;52.878;5.998;2022-11-14T09:11:25;69.30;;;40.17;;
54384;SDS011;40284;52.878;5.998;2022-11-14T09:13:51;63.65;;;38.28;;
54384;SDS011;40284;52.878;5.998;2022-11-14T09:16:17;71.03;;;39.50;;
54384;SDS011;40284;52.878;5.998;2022-11-14T09:18:43;64.65;;;38.70;;
54384;SDS011;40284;52.878;5.998;2022-11-14T09:21:09;63.85;;;38.45;;
54384;SDS011;40284;52.878;5.998;2022-11-14T09:23:37;64.07;;;37.20;;
54384;SDS011;40284;52.878;5.998;2022-11-14T09:26:04;70.65;;;41.25;;
54384;SDS011;40284;52.878;5.998;2022-11-14T09:28:30;124.05;;;73.95;;
54384;SDS011;40284;52.878;5.998;2022-11-14T09:31:06;65.65;;;39.67;;
54384;SDS011;40284;52.878;5.998;2022-11-14T09:33:33;70.07;;;39.20;;
54384;SDS011;40284;52.878;5.998;2022-11-14T09:36:00;61.53;;;36.90;;
54384;SDS011;40284;52.878;5.998;2022-11-14T09:38:26;66.63;;;37.85;;
54384;SDS011;40284;52.878;5.998;2022-11-14T09:46:03;63.42;;;39.05;;
54384;SDS011;40284;52.878;5.998;2022-11-14T09:48:29;61.53;;;37.10;;
54384;SDS011;40284;52.878;5.998;2022-11-14T09:53:36;59.38;;;36.03;;
54384;SDS011;40284;52.878;5.998;2022-11-14T09:56:07;55.08;;;34.63;;
54384;SDS011;40284;52.878;5.998;2022-11-14T09:58:34;54.63;;;33.05;;
54384;SDS011;40284;52.878;5.998;2022-11-14T10:01:02;51.67;;;34.38;;
54384;SDS011;40284;52.878;5.998;2022-11-14T10:03:36;55.45;;;34.17;;
54384;SDS011;40284;52.878;5.998;2022-11-14T10:11:54;62.17;;;39.20;;
54384;SDS011;40284;52.878;5.998;2022-11-14T10:24:35;54.33;;;35.42;;
54384;SDS011;40284;52.878;5.998;2022-11-14T10:27:04;52.78;;;32.67;;
54384;SDS011;40284;52.878;5.998;2022-11-14T10:39:56;47.42;;;31.25;;
54384;SDS011;40284;52.878;5.998;2022-11-14T10:42:31;49.42;;;29.63;;
54384;SDS011;40284;52.878;5.998;2022-11-14T10:45:03;46.05;;;29.23;;
54384;SDS011;40284;52.878;5.998;2022-11-14T10:47:34;44.05;;;30.30;;
54384;SDS011;40284;52.878;5.998;2022-11-14T10:50:04;42.97;;;28.98;;
54384;SDS011;40284;52.878;5.998;2022-11-14T10:52:37;44.55;;;28.85;;
54384;SDS011;40284;52.878;5.998;2022-11-14T10:55:06;40.97;;;28.02;;
54384;SDS011;40284;52.878;5.998;2022-11-14T10:57:33;47.17;;;29.17;;
54384;SDS011;40284;52.878;5.998;2022-11-14T10:59:59;45.78;;;28.80;;
54384;SDS011;40284;52.878;5.998;2022-11-14T11:02:25;46.35;;;28.80;;
54384;SDS011;40284;52.878;5.998;2022-11-14T11:04:51;45.63;;;28.08;;
54384;SDS011;40284;52.878;5.998;2022-11-14T11:07:19;44.60;;;29.60;;
54384;SDS011;40284;52.878;5.998;2022-11-14T11:10:04;45.50;;;26.83;;
54384;SDS011;40284;52.878;5.998;2022-11-14T11:12:49;44.80;;;28.77;;
54384;SDS011;40284;52.878;5.998;2022-11-14T11:15:23;45.60;;;28.90;;
54384;SDS011;40284;52.878;5.998;2022-11-14T11:18:00;45.20;;;29.50;;
54384;SDS011;40284;52.878;5.998;2022-11-14T11:23:02;42.30;;;28.13;;
54384;SDS011;40284;52.878;5.998;2022-11-14T11:25:29;44.42;;;28.20;;
54384;SDS011;40284;52.878;5.998;2022-11-14T11:30:31;43.15;;;27.45;;
54384;SDS011;40284;52.878;5.998;2022-11-14T11:33:13;41.42;;;29.30;;
54384;SDS011;40284;52.878;5.998;2022-11-14T11:35:40;44.95;;;28.52;;
54384;SDS011;40284;52.878;5.998;2022-11-14T11:38:07;43.78;;;28.75;;
54384;SDS011;40284;52.878;5.998;2022-11-14T11:40:33;43.22;;;27.83;;
54384;SDS011;40284;52.878;5.998;2022-11-14T11:43:00;42.33;;;28.15;;
54384;SDS011;40284;52.878;5.998;2022-11-14T11:45:28;43.28;;;28.80;;
54384;SDS011;40284;52.878;5.998;2022-11-14T11:47:59;42.83;;;28.00;;
54384;SDS011;40284;52.878;5.998;2022-11-14T11:50:26;42.90;;;28.58;;
54384;SDS011;40284;52.878;5.998;2022-11-14T11:55:36;39.08;;;28.10;;
54384;SDS011;40284;52.878;5.998;2022-11-14T12:00:49;44.45;;;29.60;;
54384;SDS011;40284;52.878;5.998;2022-11-14T12:03:16;45.45;;;29.88;;
54384;SDS011;40284;52.878;5.998;2022-11-14T12:10:40;43.60;;;28.58;;
54384;SDS011;40284;52.878;5.998;2022-11-14T12:13:19;41.75;;;27.90;;
54384;SDS011;40284;52.878;5.998;2022-11-14T12:20:51;44.72;;;28.77;;
54384;SDS011;40284;52.878;5.998;2022-11-14T12:25:54;41.47;;;27.38;;
54384;SDS011;40284;52.878;5.998;2022-11-14T12:30:57;39.90;;;28.60;;
54384;SDS011;40284;52.878;5.998;2022-11-14T12:33:31;42.35;;;28.60;;
54384;SDS011;40284;52.878;5.998;2022-11-14T12:36:00;39.03;;;26.10;;
54384;SDS011;40284;52.878;5.998;2022-11-14T12:38:30;39.22;;;27.30;;
54384;SDS011;40284;52.878;5.998;2022-11-14T12:40:57;41.50;;;26.65;;
54384;SDS011;40284;52.878;5.998;2022-11-14T12:43:34;35.70;;;26.08;;
54384;SDS011;40284;52.878;5.998;2022-11-14T12:46:04;35.80;;;25.35;;
54384;SDS011;40284;52.878;5.998;2022-11-14T12:51:02;38.15;;;27.08;;
54384;SDS011;40284;52.878;5.998;2022-11-14T13:03:44;37.97;;;26.85;;
54384;SDS011;40284;52.878;5.998;2022-11-14T13:14:17;33.22;;;22.25;;
54384;SDS011;40284;52.878;5.998;2022-11-14T13:19:59;28.98;;;22.77;;
54384;SDS011;40284;52.878;5.998;2022-11-14T13:22:58;30.80;;;21.50;;
54384;SDS011;40284;52.878;5.998;2022-11-14T13:25:24;29.58;;;22.30;;
54384;SDS011;40284;52.878;5.998;2022-11-14T13:27:50;30.05;;;22.42;;
54384;SDS011;40284;52.878;5.998;2022-11-14T13:30:23;28.35;;;20.58;;
54384;SDS011;40284;52.878;5.998;2022-11-14T13:33:05;31.40;;;21.13;;
54384;SDS011;40284;52.878;5.998;2022-11-14T13:35:36;30.45;;;21.20;;
54384;SDS011;40284;52.878;5.998;2022-11-14T13:40:45;31.20;;;21.05;;
54384;SDS011;40284;52.878;5.998;2022-11-14T13:48:35;32.10;;;23.02;;
54384;SDS011;40284;52.878;5.998;2022-11-14T13:51:09;32.75;;;21.60;;
54384;SDS011;40284;52.878;5.998;2022-11-14T13:53:37;30.98;;;21.52;;
54384;SDS011;40284;52.878;5.998;2022-11-14T14:03:39;32.90;;;22.65;;
54384;SDS011;40284;52.878;5.998;2022-11-14T14:06:12;32.45;;;21.05;;
54384;SDS011;40284;52.878;5.998;2022-11-14T14:11:24;32.17;;;24.42;;
54384;SDS011;40284;52.878;5.998;2022-11-14T14:27:00;27.63;;;21.75;;
54384;SDS011;40284;52.878;5.998;2022-11-14T14:32:13;31.35;;;22.88;;
54384;SDS011;40284;52.878;5.998;2022-11-14T14:34:39;31.27;;;22.38;;
54384;SDS011;40284;52.878;5.998;2022-11-14T14:37:16;28.95;;;20.45;;
54384;SDS011;40284;52.878;5.998;2022-11-14T14:39:54;29.90;;;20.23;;
54384;SDS011;40284;52.878;5.998;2022-11-14T14:42:20;30.98;;;21.98;;
54384;SDS011;40284;52.878;5.998;2022-11-14T14:44:46;32.05;;;21.88;;
54384;SDS011;40284;52.878;5.998;2022-11-14T14:49:54;32.42;;;22.17;;
54384;SDS011;40284;52.878;5.998;2022-11-14T14:52:41;30.80;;;21.45;;
54384;SDS011;40284;52.878;5.998;2022-11-14T14:55:15;27.73;;;21.52;;
54384;SDS011;40284;52.878;5.998;2022-11-14T14:57:42;32.90;;;22.30;;
54384;SDS011;40284;52.878;5.998;2022-11-14T15:00:16;31.92;;;22.33;;
54384;SDS011;40284;52.878;5.998;2022-11-14T15:02:42;28.27;;;20.58;;
54384;SDS011;40284;52.878;5.998;2022-11-14T15:05:09;31.75;;;22.73;;
54384;SDS011;40284;52.878;5.998;2022-11-14T15:07:36;28.00;;;20.40;;
54384;SDS011;40284;52.878;5.998;2022-11-14T15:10:03;25.73;;;19.65;;
54384;SDS011;40284;52.878;5.998;2022-11-14T15:12:32;29.45;;;21.08;;
54384;SDS011;40284;52.878;5.998;2022-11-14T15:14:58;26.65;;;20.23;;
54384;SDS011;40284;52.878;5.998;2022-11-14T15:17:25;28.70;;;20.33;;
54384;SDS011;40284;52.878;5.998;2022-11-14T15:19:52;26.30;;;20.55;;
54384;SDS011;40284;52.878;5.998;2022-11-14T15:27:49;26.08;;;20.65;;
54384;SDS011;40284;52.878;5.998;2022-11-14T15:30:23;27.90;;;20.92;;
54384;SDS011;40284;52.878;5.998;2022-11-14T15:32:51;25.60;;;18.80;;
54384;SDS011;40284;52.878;5.998;2022-11-14T15:37:59;21.38;;;17.17;;
54384;SDS011;40284;52.878;5.998;2022-11-14T15:40:25;21.90;;;17.65;;
54384;SDS011;40284;52.878;5.998;2022-11-14T15:42:51;19.90;;;15.60;;
54384;SDS011;40284;52.878;5.998;2022-11-14T15:45:28;20.77;;;17.23;;
54384;SDS011;40284;52.878;5.998;2022-11-14T15:48:05;22.38;;;17.10;;
54384;SDS011;40284;52.878;5.998;2022-11-14T15:53:03;21.00;;;16.70;;
54384;SDS011;40284;52.878;5.998;2022-11-14T15:55:30;21.45;;;17.15;;
54384;SDS011;40284;52.878;5.998;2022-11-14T15:57:56;24.80;;;17.90;;
54384;SDS011;40284;52.878;5.998;2022-11-14T16:00:22;21.40;;;17.70;;
54384;SDS011;40284;52.878;5.998;2022-11-14T16:02:50;21.52;;;17.35;;
54384;SDS011;40284;52.878;5.998;2022-11-14T16:05:16;22.35;;;17.25;;
54384;SDS011;40284;52.878;5.998;2022-11-14T16:07:44;19.88;;;15.75;;
54384;SDS011;40284;52.878;5.998;2022-11-14T16:10:14;23.02;;;17.63;;
54384;SDS011;40284;52.878;5.998;2022-11-14T16:12:41;21.50;;;16.80;;
54384;SDS011;40284;52.878;5.998;2022-11-14T16:15:07;20.33;;;16.63;;
54384;SDS011;40284;52.878;5.998;2022-11-14T16:17:34;23.70;;;17.15;;
54384;SDS011;40284;52.878;5.998;2022-11-14T16:20:06;18.02;;;15.63;;
54384;SDS011;40284;52.878;5.998;2022-11-14T16:22:32;21.80;;;17.58;;
54384;SDS011;40284;52.878;5.998;2022-11-14T16:24:58;21.75;;;17.08;;
54384;SDS011;40284;52.878;5.998;2022-11-14T16:27:25;19.38;;;16.98;;
54384;SDS011;40284;52.878;5.998;2022-11-14T16:29:51;22.30;;;18.13;;
54384;SDS011;40284;52.878;5.998;2022-11-14T16:32:17;21.73;;;17.27;;
54384;SDS011;40284;52.878;5.998;2022-11-14T16:34:44;21.77;;;16.75;;
54384;SDS011;40284;52.878;5.998;2022-11-14T16:37:11;20.48;;;17.13;;